Hlavní strana
METAR-TAF:

METAR-TAF

Letiště :

Urgench, Uzbekistán

zeměpisná šířka: 41-35N, zeměpisná délka: 060-38-42E, výška: 98 m

Aktuální stav počasí

Zpráva byla vytvořena před 22 minutami, v 08:30 UTC
Severovýchodní vítr 4 kt
Teplota 7°C
Vlhkost vzduchu 22%
Tlak 1032 hPa
Viditelnost 10 km a více
Žádná oblačnost pod 1500 m, nevyskytují se cumulonimby.

METAR: UTNU 180830Z 04004KT CAVOK 07/M13 Q1032 R13/CLRD70 NOSIG

Čas: 13:52 (08:52 UTC)

Předpověď počasí

Zpráva byla vytvořena před 3 hodinami a 52 minutami, v 05:00 UTC
Předpověď platná od 18 v 06 UTC do 19 v 06 UTC
Severní vítr 8 kt s nárazy do 18 kt
Viditelnost: 8000 m
Dočasný
od 18 v 06 UTC do 18 v 12 UTC
vítr z různých směrů 4 kt

TAF: UTNU 180500Z 1806/1906 36008G18KT 8000 NSC TEMPO 1806/1812 VRB04KT

Stav a předpovědi počasí z více než 4 000 letišť (zprávy METAR a TAF).

Červené a žluté tečky na mapě představují dostupné meteorologické stanice.

Když kurzor umístíte na tečku, zobrazí se název stanice.

Pak kliknutím zobrazíte stav a předpověď počasí.

Chcete-li změnit mapu, kliknutím na zelené tlačítko se znaménkem +mapu přiblížíte, kliknutím na zelené tlačítko se znaménkem – mapu oddálíte a kliknutím na zelené šipky přejdete na sousední mapy.


METAR-TAF: